aviador You're here:

LYBT Decoded Metar

BELGRADE BATAJNICA in SERBIA
Report Time2018-02-18 18:00:00
UTC Time2018-02-18 18:14:23
Flight Rules vfr VFR
Wind290° at 05 kt
W.Decomp.*RWY 30: 4.9 kt HW 1.2 kt LCW
W.Rank290° ranks 17
Current wind is below 290° avg. (7.1)
Visibility8000 m
Phenomena:Light Rain
Clouds:Scattered 009 Hf
Broken 033 Hf
Ceiling3,300 ft
Temp02°C (ISA -12)
Dew Point02°C (100% RH)
AAT-1.5°C
QNH1024 hPa
Density Alt-1,532 ft
Elevation262 ft
Report Wrong Elevation
Raw Report
METAR LYBT 181800Z 29005KT 8000 -RA SCT009 BKN033 02/02 Q1024 NOSIG=

Extra information for LYBT:More info

Metar Taf Metar & Taf Last 4 Metars F.Rules Stats Wind Profile Meteogram Temp Stats Airport Information Weather charts Add Link Nearby VenuesMetar ALERT Operation Metar Decoded Social comments